Time;durP1;ratioP1;P1;durP2;ratioP2;P2;SDS_P1;SDS_P2;PMS_P1;PMS_P2;Temp;Humidity;BMP_temperature;BMP_pressure;BME280_temperature;BME280_humidity;BME280_pressure;Samples;Min_cycle;Max_cycle;Signal;HPM_P1;HPM_P2
2021/03/23 00:01:11;;;;;;;24.60;11.67;;;5.40;69.80;;;;;;4966131;28;20027;-81
2021/03/23 00:03:42;;;;;;;24.20;10.20;;;5.40;69.70;;;;;;4974478;28;20063;-81
2021/03/23 00:06:09;;;;;;;23.87;10.57;;;5.40;69.60;;;;;;4974506;28;20062;-82
2021/03/23 00:08:39;;;;;;;21.50;8.53;;;5.40;69.50;;;;;;4972852;28;20037;-81
2021/03/23 00:11:42;;;;;;;15.60;8.03;;;5.40;69.40;;;;;;4974158;28;20426;-81
2021/03/23 00:14:10;;;;;;;22.77;10.20;;;5.40;69.30;;;;;;4978616;28;20895;-81
2021/03/23 00:16:39;;;;;;;20.43;8.67;;;5.40;69.40;;;;;;4964341;28;20493;-81
2021/03/23 00:19:06;;;;;;;20.93;8.97;;;5.40;69.40;;;;;;4966222;28;20035;-82
2021/03/23 00:21:31;;;;;;;21.13;9.30;;;5.40;69.50;;;;;;4970015;28;20055;-82
2021/03/23 00:23:58;;;;;;;18.87;10.03;;;5.40;69.40;;;;;;4972920;28;20077;-82
2021/03/23 00:26:25;;;;;;;22.47;11.40;;;5.30;69.50;;;;;;4970897;28;20038;-81
2021/03/23 00:28:55;;;;;;;22.57;10.37;;;5.30;69.50;;;;;;4960692;28;20015;-82
2021/03/23 00:31:23;;;;;;;17.83;8.60;;;5.30;69.60;;;;;;4967698;28;20059;-82
2021/03/23 00:33:49;;;;;;;16.40;7.90;;;5.30;69.70;;;;;;4974589;28;20030;-82
2021/03/23 00:36:20;;;;;;;15.93;7.30;;;5.40;69.60;;;;;;4964638;28;20050;-82
2021/03/23 00:38:46;;;;;;;19.70;7.93;;;5.40;69.50;;;;;;4973689;28;20030;-82
2021/03/23 00:41:12;;;;;;;12.97;5.87;;;5.40;69.50;;;;;;4963175;28;20040;-82
2021/03/23 00:43:39;;;;;;;9.83;5.57;;;5.40;69.50;;;;;;4970225;28;20039;-82
2021/03/23 00:46:06;;;;;;;11.23;5.70;;;5.40;69.50;;;;;;4971902;28;20390;-82
2021/03/23 00:48:31;;;;;;;9.00;4.97;;;5.40;69.60;;;;;;4990266;28;20151;-81
2021/03/23 00:50:57;;;;;;;10.20;4.90;;;5.30;69.50;;;;;;4975761;28;20035;-82
2021/03/23 00:53:23;;;;;;;12.17;6.80;;;5.40;69.50;;;;;;4956014;28;20098;-82
2021/03/23 00:55:49;;;;;;;14.20;6.83;;;5.40;69.20;;;;;;4970434;28;20030;-82
2021/03/23 00:58:15;;;;;;;18.27;8.20;;;5.40;69.10;;;;;;4964900;28;20059;-82
2021/03/23 01:00:41;;;;;;;15.53;7.93;;;5.40;69.10;;;;;;4965407;28;20062;-82
2021/03/23 01:03:07;;;;;;;19.90;8.77;;;5.30;69.20;;;;;;4972773;28;20467;-82
2021/03/23 01:05:35;;;;;;;13.27;5.50;;;5.30;69.10;;;;;;4983293;28;20401;-82
2021/03/23 01:08:01;;;;;;;13.10;5.90;;;5.40;69.10;;;;;;4973818;28;20030;-81
2021/03/23 01:10:29;;;;;;;12.00;5.17;;;5.40;68.90;;;;;;4978330;28;20035;-82
2021/03/23 01:12:56;;;;;;;15.83;6.10;;;5.40;68.90;;;;;;4978956;28;20117;-81
2021/03/23 01:15:25;;;;;;;11.93;6.37;;;5.40;68.90;;;;;;4966703;28;20042;-81
2021/03/23 01:17:51;;;;;;;15.00;6.47;;;5.40;68.80;;;;;;4973074;28;20412;-82
2021/03/23 01:20:19;;;;;;;16.17;7.80;;;5.40;68.80;;;;;;4973718;28;20035;-81
2021/03/23 01:22:44;;;;;;;16.60;6.17;;;5.30;69.40;;;;;;4973611;28;20258;-82
2021/03/23 01:25:11;;;;;;;15.03;6.53;;;5.30;69.00;;;;;;4973965;28;20161;-81
2021/03/23 01:27:37;;;;;;;11.87;4.90;;;5.30;69.10;;;;;;4971389;28;20022;-81
2021/03/23 01:30:05;;;;;;;16.60;5.50;;;5.30;69.10;;;;;;4968979;28;20030;-81
2021/03/23 01:32:31;;;;;;;12.37;4.80;;;5.30;69.00;;;;;;4972465;28;20062;-81
2021/03/23 01:34:57;;;;;;;11.07;5.00;;;5.20;68.90;;;;;;4965109;28;20109;-81
2021/03/23 01:37:24;;;;;;;15.93;5.83;;;5.20;69.00;;;;;;4955335;28;20050;-81
2021/03/23 01:39:50;;;;;;;13.77;5.70;;;5.20;69.00;;;;;;4958840;28;20459;-81
2021/03/23 01:42:18;;;;;;;16.47;6.97;;;5.20;68.90;;;;;;4972277;28;20050;-80
2021/03/23 01:44:45;;;;;;;13.57;7.53;;;5.20;69.00;;;;;;4987725;28;20038;-80
2021/03/23 01:47:11;;;;;;;19.87;9.57;;;5.30;69.10;;;;;;4972841;28;20126;-80
2021/03/23 01:49:41;;;;;;;21.87;8.97;;;5.30;69.20;;;;;;4972289;28;20486;-80
2021/03/23 01:52:11;;;;;;;22.13;9.87;;;5.30;69.30;;;;;;4969716;28;20051;-80
2021/03/23 01:54:59;;;;;;;22.00;8.30;;;5.30;69.20;;;;;;4988522;28;20034;-81
2021/03/23 01:57:24;;;;;;;22.23;10.40;;;5.30;69.30;;;;;;4972587;28;20039;-81
2021/03/23 01:59:53;;;;;;;17.37;8.97;;;5.30;69.20;;;;;;4969304;28;20062;-80
2021/03/23 02:02:21;;;;;;;20.70;9.33;;;5.30;69.30;;;;;;4957835;28;20065;-81
2021/03/23 02:04:47;;;;;;;16.57;8.90;;;5.20;69.30;;;;;;4969806;28;20035;-81
2021/03/23 02:07:13;;;;;;;19.27;9.53;;;5.20;69.30;;;;;;4968927;28;20063;-81
2021/03/23 02:09:39;;;;;;;20.20;9.93;;;5.20;69.40;;;;;;4975562;28;20022;-81
2021/03/23 02:12:13;;;;;;;21.13;10.13;;;5.20;69.50;;;;;;4960272;28;20031;-82
2021/03/23 02:14:42;;;;;;;15.57;8.10;;;5.20;69.60;;;;;;4971851;28;20031;-81
2021/03/23 02:17:33;;;;;;;13.50;6.60;;;5.20;69.60;;;;;;4972809;28;20051;-81
2021/03/23 02:20:00;;;;;;;10.50;4.93;;;5.20;69.50;;;;;;4977760;28;20042;-81
2021/03/23 02:22:27;;;;;;;11.10;5.70;;;5.20;69.50;;;;;;4971080;28;20031;-82
2021/03/23 02:24:53;;;;;;;14.33;7.20;;;5.20;69.50;;;;;;4972666;28;20038;-82
2021/03/23 02:27:20;;;;;;;17.40;7.60;;;5.20;69.50;;;;;;4970541;28;20026;-81
2021/03/23 02:29:47;;;;;;;12.33;6.37;;;5.20;69.40;;;;;;4965759;28;20054;-81
2021/03/23 02:32:12;;;;;;;14.93;6.63;;;5.20;69.50;;;;;;4970115;28;20117;-81
2021/03/23 02:34:38;;;;;;;18.33;8.90;;;5.20;69.30;;;;;;4969138;28;20486;-81
2021/03/23 02:37:04;;;;;;;19.57;9.17;;;5.20;69.40;;;;;;4970155;28;20041;-81
2021/03/23 02:39:33;;;;;;;17.30;7.67;;;5.20;69.30;;;;;;4968891;28;20027;-81
2021/03/23 02:41:59;;;;;;;17.73;7.37;;;5.20;69.20;;;;;;4967843;28;20109;-81
2021/03/23 02:44:26;;;;;;;17.00;7.97;;;5.20;69.30;;;;;;4962354;28;20058;-82
2021/03/23 02:46:52;;;;;;;14.20;7.00;;;5.20;69.80;;;;;;4962232;28;20126;-82
2021/03/23 02:49:17;;;;;;;11.60;6.90;;;5.20;69.20;;;;;;4972032;28;20097;-81
2021/03/23 02:51:43;;;;;;;15.83;7.50;;;5.20;69.10;;;;;;4969905;28;20027;-81
2021/03/23 02:54:09;;;;;;;13.43;6.93;;;5.20;69.10;;;;;;4968871;28;20023;-81
2021/03/23 02:56:34;;;;;;;20.00;8.23;;;5.20;69.00;;;;;;4969827;28;20038;-81
2021/03/23 02:59:00;;;;;;;12.67;7.47;;;5.20;69.00;;;;;;4965618;28;20043;-81
2021/03/23 03:01:26;;;;;;;17.07;8.70;;;5.20;69.00;;;;;;4958654;28;20084;-81
2021/03/23 03:03:52;;;;;;;20.50;11.33;;;5.10;69.10;;;;;;4972383;28;20493;-82
2021/03/23 03:06:18;;;;;;;19.93;9.20;;;5.10;69.20;;;;;;4968184;28;20023;-81
2021/03/23 03:08:44;;;;;;;14.17;8.60;;;5.20;69.20;;;;;;4967940;28;20018;-82
2021/03/23 03:11:10;;;;;;;14.17;7.90;;;5.30;69.00;;;;;;4970556;28;20026;-81
2021/03/23 03:13:36;;;;;;;11.73;6.80;;;5.20;69.00;;;;;;4952529;28;20026;-81
2021/03/23 03:16:03;;;;;;;10.60;5.27;;;5.30;69.20;;;;;;4973039;28;20042;-81
2021/03/23 03:18:29;;;;;;;11.80;6.23;;;5.30;69.10;;;;;;4971546;28;20073;-82
2021/03/23 03:20:56;;;;;;;18.70;8.73;;;5.20;68.90;;;;;;4975198;28;20395;-81
2021/03/23 03:23:23;;;;;;;19.83;9.10;;;5.20;69.20;;;;;;4977047;28;20019;-81
2021/03/23 03:25:49;;;;;;;17.33;9.57;;;5.20;69.20;;;;;;4981407;28;20394;-81
2021/03/23 03:28:16;;;;;;;22.93;11.40;;;5.10;69.60;;;;;;4971997;28;20492;-81
2021/03/23 03:30:42;;;;;;;24.73;12.20;;;5.10;69.10;;;;;;4962214;28;20094;-81
2021/03/23 03:33:11;;;;;;;24.37;11.83;;;5.10;69.30;;;;;;4962960;28;20030;-83
2021/03/23 03:35:39;;;;;;;21.00;11.67;;;5.10;69.30;;;;;;4970255;28;20442;-83
2021/03/23 03:38:05;;;;;;;22.33;10.50;;;5.10;69.30;;;;;;4971981;28;20026;-83
2021/03/23 03:40:45;;;;;;;20.23;9.60;;;5.10;70.00;;;;;;4963601;28;20074;-83
2021/03/23 03:43:12;;;;;;;14.57;9.27;;;5.10;69.40;;;;;;4975239;28;20034;-83
2021/03/23 03:45:39;;;;;;;15.70;9.23;;;5.10;69.30;;;;;;4975488;28;20039;-83
2021/03/23 03:48:06;;;;;;;20.27;9.97;;;5.10;69.30;;;;;;4964508;28;20035;-84
2021/03/23 03:50:32;;;;;;;26.23;12.53;;;5.10;69.30;;;;;;4989158;28;20139;-83
2021/03/23 03:52:58;;;;;;;28.53;14.37;;;5.10;69.30;;;;;;4972657;28;20035;-83
2021/03/23 03:55:37;;;;;;;26.33;13.80;;;5.10;69.40;;;;;;4967618;28;20030;-83
2021/03/23 03:58:03;;;;;;;29.10;15.23;;;5.10;69.40;;;;;;4979941;28;20025;-83
2021/03/23 04:00:30;;;;;;;26.80;15.27;;;5.10;69.30;;;;;;4982564;28;20049;-83
2021/03/23 04:02:57;;;;;;;17.33;9.87;;;5.20;69.50;;;;;;4999862;28;20023;-85
2021/03/23 04:05:36;;;;;;;21.97;9.50;;;5.10;69.30;;;;;;4980482;28;20097;-83
2021/03/23 04:08:04;;;;;;;18.33;10.67;;;5.10;69.20;;;;;;4973257;28;20364;-81
2021/03/23 04:10:30;;;;;;;19.80;9.23;;;5.10;69.10;;;;;;4973758;28;20570;-81
2021/03/23 04:12:56;;;;;;;18.50;9.87;;;5.10;69.20;;;;;;4962382;28;20062;-81
2021/03/23 04:15:30;;;;;;;17.13;9.50;;;5.10;69.20;;;;;;4967367;28;20050;-81
2021/03/23 04:17:56;;;;;;;20.50;10.83;;;5.10;69.10;;;;;;4975631;28;20438;-82
2021/03/23 04:20:23;;;;;;;24.93;11.67;;;5.10;69.00;;;;;;4971900;28;20031;-82
2021/03/23 04:22:49;;;;;;;22.97;12.23;;;5.00;69.40;;;;;;4970926;28;20058;-82
2021/03/23 04:25:20;;;;;;;27.13;12.60;;;5.00;69.40;;;;;;4986296;28;20035;-81
2021/03/23 04:27:46;;;;;;;26.83;13.63;;;5.10;69.40;;;;;;4974487;28;20093;-81
2021/03/23 04:30:12;;;;;;;30.80;14.17;;;5.00;69.30;;;;;;4976186;28;20023;-81
2021/03/23 04:32:39;;;;;;;23.10;11.90;;;5.00;69.40;;;;;;4967826;28;20122;-80
2021/03/23 04:35:07;;;;;;;30.03;15.33;;;5.10;69.60;;;;;;4971194;28;20134;-81
2021/03/23 04:37:33;;;;;;;29.23;12.67;;;5.10;69.60;;;;;;4971342;28;20026;-80
2021/03/23 04:40:01;;;;;;;23.43;10.90;;;5.10;69.60;;;;;;4972940;28;20503;-81
2021/03/23 04:42:27;;;;;;;17.80;9.50;;;5.20;69.60;;;;;;4988980;28;20034;-81
2021/03/23 04:44:52;;;;;;;17.50;9.80;;;5.20;69.60;;;;;;4963115;28;20036;-82
2021/03/23 04:47:18;;;;;;;20.13;10.10;;;5.20;69.40;;;;;;4974680;28;20046;-82
2021/03/23 04:49:44;;;;;;;23.23;12.30;;;5.20;69.30;;;;;;4986037;28;20057;-82
2021/03/23 04:52:09;;;;;;;23.20;11.47;;;5.10;69.30;;;;;;4963763;28;20049;-82
2021/03/23 04:54:35;;;;;;;35.07;13.30;;;5.20;69.30;;;;;;4963653;28;20030;-83
2021/03/23 04:57:01;;;;;;;22.30;12.23;;;5.10;69.20;;;;;;4964873;28;20027;-82
2021/03/23 04:59:27;;;;;;;22.70;12.90;;;5.10;69.40;;;;;;4954367;28;20065;-83
2021/03/23 05:01:52;;;;;;;21.73;12.00;;;5.10;69.50;;;;;;4966060;28;20022;-82
2021/03/23 05:04:19;;;;;;;23.13;12.30;;;5.10;69.40;;;;;;4974165;28;20130;-83
2021/03/23 05:06:45;;;;;;;20.90;11.63;;;5.10;69.50;;;;;;4965702;28;20138;-81
2021/03/23 05:09:11;;;;;;;27.30;12.57;;;5.10;69.50;;;;;;4972179;28;20134;-82
2021/03/23 05:11:37;;;;;;;22.50;11.60;;;5.10;69.40;;;;;;4968406;28;20495;-83
2021/03/23 05:14:05;;;;;;;20.93;10.60;;;5.10;69.50;;;;;;4989392;28;20062;-82
2021/03/23 05:16:31;;;;;;;18.10;10.43;;;5.10;69.50;;;;;;4970036;28;20058;-82
2021/03/23 05:18:57;;;;;;;20.57;10.73;;;5.10;69.50;;;;;;4961018;28;20122;-82
2021/03/23 05:21:23;;;;;;;19.10;11.33;;;5.20;69.50;;;;;;4973672;28;20173;-82
2021/03/23 05:23:49;;;;;;;21.77;11.77;;;5.20;69.30;;;;;;4980321;28;20038;-79
2021/03/23 05:26:15;;;;;;;25.03;13.00;;;5.20;69.20;;;;;;4967669;28;20030;-79
2021/03/23 05:28:46;;;;;;;21.20;12.73;;;5.20;69.30;;;;;;4973392;28;20027;-80
2021/03/23 05:31:12;;;;;;;24.83;12.30;;;5.20;69.10;;;;;;4967550;28;20038;-81
2021/03/23 05:33:38;;;;;;;22.97;11.63;;;5.30;69.30;;;;;;4963587;28;20471;-80
2021/03/23 05:36:04;;;;;;;26.70;13.40;;;5.20;69.20;;;;;;4974585;28;20019;-80
2021/03/23 05:38:30;;;;;;;22.10;12.93;;;5.20;69.30;;;;;;4970907;28;20030;-80
2021/03/23 05:41:07;;;;;;;24.73;14.20;;;5.20;69.30;;;;;;4971114;28;20440;-80
2021/03/23 05:43:32;;;;;;;25.03;14.10;;;5.30;69.30;;;;;;4969662;28;20054;-81
2021/03/23 05:46:13;;;;;;;26.00;13.77;;;5.30;69.20;;;;;;4961803;28;20101;-81
2021/03/23 05:48:51;;;;;;;29.43;15.00;;;5.30;69.80;;;;;;4959850;28;20046;-81
2021/03/23 05:51:51;;;;;;;25.20;13.27;;;5.30;69.30;;;;;;4967980;28;20375;-80
2021/03/23 05:54:39;;;;;;;25.47;13.90;;;5.30;69.30;;;;;;4972652;28;20081;-80
2021/03/23 05:57:15;;;;;;;34.13;16.27;;;5.30;69.30;;;;;;4955315;28;20031;-80
2021/03/23 05:59:54;;;;;;;36.00;19.73;;;5.30;69.30;;;;;;4959244;28;20093;-80
2021/03/23 06:02:43;;;;;;;27.57;17.47;;;5.30;69.20;;;;;;4967710;28;20105;-80
2021/03/23 06:05:35;;;;;;;41.70;22.60;;;5.30;69.30;;;;;;4971879;28;20027;-80
2021/03/23 06:08:03;;;;;;;41.90;20.27;;;5.30;69.20;;;;;;4971194;28;20414;-81
2021/03/23 06:10:29;;;;;;;34.90;18.37;;;5.30;69.00;;;;;;4968189;28;20490;-81
2021/03/23 06:13:15;;;;;;;27.63;14.97;;;5.20;69.30;;;;;;4962577;28;20114;-81
2021/03/23 06:16:09;;;;;;;32.73;16.93;;;5.10;69.40;;;;;;4956568;28;20483;-81
2021/03/23 06:19:02;;;;;;;32.17;16.88;;;5.10;69.50;;;;;;4972528;28;20056;-80
2021/03/23 06:21:46;;;;;;;25.60;14.17;;;5.10;69.70;;;;;;4972006;28;20501;-81
2021/03/23 06:24:35;;;;;;;31.87;16.50;;;5.10;70.00;;;;;;4988372;28;20053;-83
2021/03/23 06:27:04;;;;;;;39.80;20.17;;;5.10;70.10;;;;;;4973857;28;20034;-81
2021/03/23 06:30:02;;;;;;;22.57;13.37;;;5.00;70.00;;;;;;4970293;28;20441;-81
2021/03/23 06:32:50;;;;;;;26.20;15.37;;;5.10;70.30;;;;;;4971429;28;20032;-81
2021/03/23 06:35:20;;;;;;;44.60;21.43;;;5.20;70.20;;;;;;4967400;28;20030;-81
2021/03/23 06:37:46;;;;;;;131.03;64.03;;;5.20;70.20;;;;;;4961217;28;20105;-81
2021/03/23 06:40:28;;;;;;;153.63;73.00;;;5.20;69.80;;;;;;4968232;28;20546;-81
2021/03/23 06:43:16;;;;;;;138.97;65.40;;;5.20;69.80;;;;;;4965484;28;20385;-82
2021/03/23 06:45:42;;;;;;;71.47;39.97;;;5.20;70.00;;;;;;4964384;28;20058;-82
2021/03/23 06:48:30;;;;;;;40.90;22.17;;;5.30;70.00;;;;;;4971210;28;20081;-82
2021/03/23 06:51:14;;;;;;;31.67;18.80;;;5.30;69.80;;;;;;4964450;28;20054;-82
2021/03/23 06:53:41;;;;;;;30.63;18.60;;;5.30;69.50;;;;;;4971800;28;20019;-82
2021/03/23 06:56:22;;;;;;;31.73;16.53;;;5.20;69.30;;;;;;4966249;28;20057;-82
2021/03/23 06:59:14;;;;;;;24.20;14.27;;;5.30;69.40;;;;;;4973473;28;20031;-82
2021/03/23 07:01:48;;;;;;;28.80;12.98;;;5.30;69.30;;;;;;4982031;28;20023;-82
2021/03/23 07:04:16;;;;;;;22.60;13.10;;;5.30;69.10;;;;;;4966325;28;20030;-82
2021/03/23 07:06:43;;;;;;;23.80;13.57;;;5.30;69.00;;;;;;4966601;28;20031;-82
2021/03/23 07:09:08;;;;;;;16.43;10.77;;;5.40;69.00;;;;;;4966953;28;20117;-82
2021/03/23 07:11:52;;;;;;;20.30;11.20;;;5.40;68.70;;;;;;4974555;28;20122;-82
2021/03/23 07:14:27;;;;;;;18.97;12.83;;;5.50;68.60;;;;;;4971631;28;20029;-82
2021/03/23 07:17:10;;;;;;;27.43;14.20;;;5.40;68.40;;;;;;4956462;28;20047;-83
2021/03/23 07:20:05;;;;;;;22.55;13.38;;;5.40;68.20;;;;;;4957843;28;20502;-82
2021/03/23 07:22:33;;;;;;;25.47;14.97;;;5.40;68.40;;;;;;4957729;28;20039;-81
2021/03/23 07:25:00;;;;;;;27.47;14.47;;;5.40;68.40;;;;;;4967926;28;20038;-82
2021/03/23 07:27:28;;;;;;;25.97;14.13;;;5.50;68.60;;;;;;4964040;28;20023;-83
2021/03/23 07:30:13;;;;;;;21.03;13.87;;;5.60;68.40;;;;;;4975083;28;20336;-82
2021/03/23 07:32:44;;;;;;;31.87;16.57;;;5.70;68.60;;;;;;4964035;28;20379;-82
2021/03/23 07:35:33;;;;;;;28.40;16.33;;;5.70;68.20;;;;;;4970979;28;20034;-82
2021/03/23 07:38:15;;;;;;;26.67;15.87;;;5.70;68.40;;;;;;4976345;28;20053;-82
2021/03/23 07:40:50;;;;;;;29.05;15.25;;;5.80;68.70;;;;;;4976113;28;20030;-82
2021/03/23 07:43:37;;;;;;;25.97;14.80;;;5.80;68.60;;;;;;4975106;28;20074;-82
2021/03/23 07:46:09;;;;;;;25.10;15.07;;;5.90;68.40;;;;;;4976250;28;20043;-82
2021/03/23 07:49:01;;;;;;;24.25;15.38;;;5.90;68.40;;;;;;4974777;28;20047;-82
2021/03/23 07:51:30;;;;;;;28.33;14.80;;;5.90;68.40;;;;;;4995728;28;20031;-82
2021/03/23 07:54:26;;;;;;;25.73;14.80;;;5.90;68.40;;;;;;4989648;28;20026;-82
2021/03/23 07:57:27;;;;;;;26.03;14.37;;;6.00;68.50;;;;;;4963303;28;20055;-82
2021/03/23 08:00:08;;;;;;;21.90;12.97;;;6.10;68.40;;;;;;4934906;29;20027;-82
2021/03/23 08:03:07;;;;;;;20.20;13.23;;;6.20;68.40;;;;;;4965068;28;20031;-82
2021/03/23 08:08:54;;;;;;;19.63;11.88;;;6.20;68.10;;;;;;4969605;28;20103;-82
2021/03/23 08:11:46;;;;;;;24.00;13.63;;;6.20;67.50;;;;;;4979911;28;20125;-82
2021/03/23 08:14:32;;;;;;;21.53;12.60;;;6.20;67.60;;;;;;4975374;28;20031;-82
2021/03/23 08:17:35;;;;;;;24.00;12.13;;;6.30;67.50;;;;;;4975639;28;20027;-82
2021/03/23 08:20:01;;;;;;;19.25;12.45;;;6.40;67.60;;;;;;4971720;28;20031;-82
2021/03/23 08:22:58;;;;;;;20.20;11.93;;;6.40;67.30;;;;;;4955178;28;20031;-82
2021/03/23 08:26:05;;;;;;;19.63;11.53;;;6.50;67.00;;;;;;4969627;28;20027;-84
2021/03/23 08:28:49;;;;;;;22.23;11.17;;;6.50;66.90;;;;;;4973944;28;20026;-84
2021/03/23 08:31:18;;;;;;;21.77;12.47;;;6.50;66.70;;;;;;4983131;28;20031;-84
2021/03/23 08:34:21;;;;;;;22.47;13.37;;;6.50;66.20;;;;;;4979268;28;20118;-84
2021/03/23 08:37:19;;;;;;;20.60;12.60;;;6.60;66.40;;;;;;4955011;28;20471;-83
2021/03/23 08:40:30;;;;;;;22.40;12.57;;;6.50;65.90;;;;;;4955237;29;20031;-83
2021/03/23 08:42:56;;;;;;;21.10;12.57;;;6.50;66.20;;;;;;4956383;28;20829;-83
2021/03/23 08:45:36;;;;;;;21.67;12.67;;;6.60;66.20;;;;;;4963898;28;20039;-83
2021/03/23 08:48:35;;;;;;;23.20;12.60;;;6.70;66.10;;;;;;4974643;28;20387;-83
2021/03/23 08:51:05;;;;;;;24.90;13.37;;;6.80;65.60;;;;;;4950055;28;20469;-83
2021/03/23 08:53:31;;;;;;;29.10;14.83;;;6.80;65.60;;;;;;4974645;28;20360;-82
2021/03/23 08:55:58;;;;;;;26.00;13.97;;;6.90;65.60;;;;;;4965156;28;20116;-83
2021/03/23 08:58:41;;;;;;;23.20;13.13;;;6.90;65.30;;;;;;4956033;29;20506;-83
2021/03/23 09:01:26;;;;;;;20.83;11.47;;;7.10;65.10;;;;;;4956975;28;20019;-83
2021/03/23 09:04:16;;;;;;;19.53;11.73;;;7.10;64.80;;;;;;4973201;28;20031;-83
2021/03/23 09:06:53;;;;;;;17.87;10.30;;;7.20;64.60;;;;;;4968420;28;20398;-83
2021/03/23 09:09:25;;;;;;;18.60;9.83;;;7.10;64.00;;;;;;4973974;28;20475;-83
2021/03/23 09:12:08;;;;;;;24.67;10.13;;;7.10;64.10;;;;;;4975176;28;20033;-83
2021/03/23 09:15:08;;;;;;;22.10;10.37;;;7.20;64.10;;;;;;4974187;28;20368;-83
2021/03/23 09:17:48;;;;;;;16.47;8.50;;;7.30;63.80;;;;;;4969391;28;20082;-83
2021/03/23 09:20:32;;;;;;;15.83;8.97;;;7.40;63.40;;;;;;4964211;28;20030;-83
2021/03/23 09:23:23;;;;;;;17.97;9.20;;;7.50;62.70;;;;;;4973950;28;20046;-83
2021/03/23 09:25:53;;;;;;;18.20;9.83;;;7.40;62.30;;;;;;4974773;28;20026;-83
2021/03/23 09:29:13;;;;;;;17.27;9.40;;;7.50;62.60;;;;;;4972624;28;20169;-83
2021/03/23 09:31:25;;;;;;;16.07;8.10;;;7.60;62.20;;;;;;4965179;28;20042;-82
2021/03/23 09:33:56;;;;;;;13.57;8.40;;;7.70;61.70;;;;;;4970901;28;20101;-82
2021/03/23 09:36:45;;;;;;;16.30;8.57;;;7.70;61.20;;;;;;4972468;28;20034;-83
2021/03/23 09:39:14;;;;;;;14.83;9.00;;;7.60;60.70;;;;;;4959686;28;20037;-83
2021/03/23 09:41:42;;;;;;;18.40;9.07;;;7.60;60.70;;;;;;4987037;28;20025;-83
2021/03/23 09:44:11;;;;;;;17.27;9.23;;;7.60;60.20;;;;;;4965742;28;20114;-82
2021/03/23 09:46:50;;;;;;;20.87;9.13;;;7.60;60.40;;;;;;4962948;28;20027;-82
2021/03/23 09:49:53;;;;;;;17.00;8.03;;;7.80;60.10;;;;;;4963565;28;20035;-83
2021/03/23 09:52:27;;;;;;;13.98;8.05;;;7.90;59.50;;;;;;4965836;28;20031;-83
2021/03/23 09:55:00;;;;;;;17.47;7.53;;;7.90;59.80;;;;;;4988676;28;20033;-82
2021/03/23 09:57:29;;;;;;;15.37;7.27;;;8.10;59.50;;;;;;4965909;28;20073;-84
2021/03/23 09:59:57;;;;;;;15.47;7.10;;;8.10;59.30;;;;;;4963257;28;20093;-82
2021/03/23 10:02:23;;;;;;;17.03;8.07;;;8.10;59.00;;;;;;4964286;28;20078;-82
2021/03/23 10:04:50;;;;;;;20.67;7.70;;;8.30;59.10;;;;;;4968033;28;20031;-83
2021/03/23 10:07:36;;;;;;;13.93;7.03;;;8.40;58.80;;;;;;4965441;28;20053;-83
2021/03/23 10:10:26;;;;;;;16.43;8.63;;;8.50;58.20;;;;;;4962336;28;20023;-82
2021/03/23 10:12:53;;;;;;;13.13;7.27;;;8.60;58.10;;;;;;4967276;28;20019;-83
2021/03/23 10:15:35;;;;;;;13.13;7.03;;;8.50;57.90;;;;;;4974642;28;20029;-82
2021/03/23 10:18:31;;;;;;;20.60;8.30;;;8.60;57.70;;;;;;4979556;28;20094;-82
2021/03/23 10:21:01;;;;;;;24.03;9.70;;;8.50;57.50;;;;;;4966069;28;20066;-82
2021/03/23 10:23:30;;;;;;;15.60;7.00;;;8.60;57.50;;;;;;4959933;28;20356;-80
2021/03/23 10:25:57;;;;;;;14.70;7.03;;;8.50;57.10;;;;;;4966715;28;20038;-80
2021/03/23 10:28:35;;;;;;;23.53;6.50;;;8.50;56.70;;;;;;4966329;28;20141;-80
2021/03/23 10:31:08;;;;;;;10.80;5.10;;;8.60;56.30;;;;;;4985075;28;20122;-81
2021/03/23 10:33:37;;;;;;;10.67;5.07;;;8.60;55.70;;;;;;4986298;28;20130;-81
2021/03/23 10:36:12;;;;;;;11.03;5.00;;;8.60;55.30;;;;;;4955270;28;20086;-80
2021/03/23 10:38:40;;;;;;;11.60;5.30;;;8.70;55.00;;;;;;4969928;28;20047;-81
2021/03/23 10:41:18;;;;;;;10.90;5.53;;;8.80;54.70;;;;;;4969724;28;20545;-82
2021/03/23 10:43:49;;;;;;;14.87;4.73;;;8.90;54.30;;;;;;4985266;28;20549;-82
2021/03/23 10:46:29;;;;;;;13.63;5.30;;;8.90;54.00;;;;;;4970473;28;20064;-83
2021/03/23 10:49:16;;;;;;;13.50;5.20;;;8.90;53.20;;;;;;4952446;28;20038;-82
2021/03/23 10:51:48;;;;;;;14.13;6.30;;;8.90;53.00;;;;;;4962050;28;20030;-82
2021/03/23 10:54:14;;;;;;;11.60;5.20;;;8.90;53.50;;;;;;4967452;28;20042;-83
2021/03/23 10:56:45;;;;;;;16.97;6.00;;;9.10;53.30;;;;;;4961130;28;20025;-82
2021/03/23 10:59:22;;;;;;;13.40;6.50;;;9.10;52.40;;;;;;4972029;28;20154;-80
2021/03/23 11:02:18;;;;;;;12.10;5.43;;;9.20;52.60;;;;;;4966085;28;20485;-80
2021/03/23 11:05:01;;;;;;;15.93;7.07;;;9.40;51.70;;;;;;4961404;28;20328;-80
2021/03/23 11:07:29;;;;;;;12.13;5.88;;;9.50;51.10;;;;;;4972348;28;20043;-80
2021/03/23 11:10:00;;;;;;;16.67;6.40;;;9.50;51.80;;;;;;4978873;28;20038;-80
2021/03/23 11:12:28;;;;;;;13.93;6.40;;;9.70;51.70;;;;;;4966883;28;20421;-82
2021/03/23 11:14:54;;;;;;;12.40;4.87;;;9.80;51.90;;;;;;4973008;28;20451;-80
2021/03/23 11:17:24;;;;;;;13.10;5.37;;;10.10;51.70;;;;;;4966410;28;20582;-80
2021/03/23 11:20:00;;;;;;;13.87;5.83;;;10.30;50.90;;;;;;4971470;28;20430;-80
2021/03/23 11:22:32;;;;;;;10.43;5.30;;;10.40;50.40;;;;;;4969230;28;20444;-80
2021/03/23 11:24:57;;;;;;;15.77;5.30;;;10.50;50.80;;;;;;4971542;28;20034;-80
2021/03/23 11:27:27;;;;;;;11.27;5.33;;;10.70;50.10;;;;;;4973139;28;20026;-80
2021/03/23 11:29:58;;;;;;;10.20;5.37;;;10.60;49.50;;;;;;4983621;28;20486;-80
2021/03/23 11:32:24;;;;;;;10.90;6.07;;;10.60;49.50;;;;;;4964712;28;20382;-79
2021/03/23 11:34:50;;;;;;;12.07;6.67;;;10.70;49.50;;;;;;4955418;28;20475;-80
2021/03/23 11:37:17;;;;;;;7.63;5.07;;;10.90;49.10;;;;;;4971154;28;20042;-79
2021/03/23 11:39:42;;;;;;;10.97;4.80;;;11.00;48.50;;;;;;4972152;28;20061;-82
2021/03/23 11:42:29;;;;;;;9.57;5.20;;;10.90;48.20;;;;;;4986594;28;20054;-80
2021/03/23 11:45:19;;;;;;;10.70;4.17;;;11.00;48.10;;;;;;4974157;28;20119;-80
2021/03/23 11:47:59;;;;;;;9.83;5.23;;;11.10;48.20;;;;;;4976697;28;20454;-80
2021/03/23 11:50:28;;;;;;;7.13;4.47;;;11.30;48.00;;;;;;4974560;28;20027;-79
2021/03/23 11:52:55;;;;;;;7.83;4.40;;;11.60;48.10;;;;;;4985237;28;20446;-80
2021/03/23 11:55:27;;;;;;;11.50;5.13;;;11.60;46.50;;;;;;4976036;28;20027;-79
2021/03/23 11:57:54;;;;;;;12.43;4.03;;;11.60;46.00;;;;;;4980359;28;20038;-80
2021/03/23 12:00:30;;;;;;;6.97;4.23;;;11.70;45.70;;;;;;4961196;28;20325;-80
2021/03/23 12:02:57;;;;;;;10.53;4.07;;;11.80;45.40;;;;;;4960481;28;20549;-81
2021/03/23 12:05:24;;;;;;;9.23;4.37;;;11.90;45.20;;;;;;4990851;28;20130;-80
2021/03/23 12:07:50;;;;;;;4.13;3.50;;;12.00;44.60;;;;;;4973245;28;20085;-81
2021/03/23 12:10:27;;;;;;;8.23;4.33;;;11.90;43.90;;;;;;4972078;28;20055;-80
2021/03/23 12:13:28;;;;;;;7.33;4.10;;;12.00;43.70;;;;;;4977577;28;20089;-80
2021/03/23 12:16:03;;;;;;;9.33;4.83;;;12.10;43.50;;;;;;4936128;28;20419;-80
2021/03/23 12:18:32;;;;;;;6.03;3.40;;;12.30;43.70;;;;;;4970682;28;20090;-81
2021/03/23 12:21:00;;;;;;;8.17;3.80;;;12.40;43.30;;;;;;4973074;28;20035;-81
2021/03/23 12:23:28;;;;;;;8.03;3.77;;;12.50;43.20;;;;;;4980802;28;20481;-81
2021/03/23 12:25:56;;;;;;;13.60;4.43;;;12.60;43.00;;;;;;4993831;28;20030;-81
2021/03/23 12:28:22;;;;;;;11.10;5.23;;;12.70;43.30;;;;;;4983525;28;20101;-80
2021/03/23 12:30:49;;;;;;;13.13;3.87;;;12.90;43.80;;;;;;4975517;28;20022;-80
2021/03/23 12:33:15;;;;;;;6.77;3.77;;;13.00;43.80;;;;;;4970676;28;20031;-80
2021/03/23 12:35:40;;;;;;;5.43;3.43;;;13.00;43.50;;;;;;4966692;28;20738;-80
2021/03/23 12:38:09;;;;;;;6.43;3.53;;;13.00;43.50;;;;;;4974118;28;20037;-80
2021/03/23 12:40:36;;;;;;;7.47;3.70;;;12.90;43.30;;;;;;4972493;28;20352;-80
2021/03/23 12:43:07;;;;;;;5.73;2.97;;;12.90;43.10;;;;;;4971152;28;20043;-80
2021/03/23 12:45:40;;;;;;;6.67;3.37;;;12.90;43.40;;;;;;4974146;28;20023;-80
2021/03/23 12:48:10;;;;;;;9.52;3.47;;;13.10;43.10;;;;;;4972024;28;20059;-80
2021/03/23 12:50:36;;;;;;;6.13;3.47;;;13.20;42.90;;;;;;4959875;28;20449;-81
2021/03/23 12:53:06;;;;;;;7.40;4.30;;;13.30;42.60;;;;;;4973559;28;20058;-80
2021/03/23 12:55:33;;;;;;;7.07;3.83;;;13.20;42.60;;;;;;4978680;28;20069;-80
2021/03/23 12:58:01;;;;;;;9.27;4.37;;;13.00;42.50;;;;;;4967961;28;20031;-80
2021/03/23 13:00:32;;;;;;;8.53;4.13;;;12.80;42.40;;;;;;4963533;28;20050;-81
2021/03/23 13:02:58;;;;;;;6.67;4.10;;;12.80;42.80;;;;;;4966198;28;20074;-80
2021/03/23 13:05:24;;;;;;;7.43;3.90;;;12.70;42.90;;;;;;4960893;28;20027;-81
2021/03/23 13:07:54;;;;;;;6.30;4.27;;;12.70;43.00;;;;;;4972009;28;20046;-81
2021/03/23 13:10:28;;;;;;;8.50;4.67;;;12.80;43.10;;;;;;4975668;28;21421;-81
2021/03/23 13:12:56;;;;;;;10.33;4.30;;;12.90;43.00;;;;;;4969523;28;20034;-81
2021/03/23 13:15:23;;;;;;;9.90;4.93;;;13.00;43.30;;;;;;4970091;28;20031;-81